createdAt,value
2022-07-28T00:01:09.673Z,5.30
2022-07-28T00:03:36.700Z,4.97
2022-07-28T00:06:03.748Z,4.93
2022-07-28T00:08:30.608Z,5.50
2022-07-28T00:10:57.543Z,4.03
2022-07-28T00:13:24.390Z,4.67
2022-07-28T00:15:51.309Z,4.37
2022-07-28T00:18:18.362Z,5.30
2022-07-28T00:20:45.275Z,4.50
2022-07-28T00:23:12.159Z,4.03
2022-07-28T00:25:39.004Z,4.40
2022-07-28T00:28:06.110Z,3.90
2022-07-28T00:30:33.070Z,3.87
2022-07-28T00:33:00.510Z,4.27
2022-07-28T00:35:31.063Z,3.57
2022-07-28T00:37:59.403Z,4.03
2022-07-28T00:40:47.062Z,3.83
2022-07-28T00:43:14.572Z,3.83
2022-07-28T00:45:41.648Z,3.67
2022-07-28T00:48:09.385Z,3.97
2022-07-28T00:50:39.710Z,3.97
2022-07-28T00:53:08.723Z,3.43
2022-07-28T00:56:05.919Z,3.53
2022-07-28T00:58:26.908Z,3.20
2022-07-28T01:00:54.108Z,4.40
2022-07-28T01:03:21.522Z,4.17
2022-07-28T01:06:07.284Z,3.90
2022-07-28T01:08:53.002Z,3.47
2022-07-28T01:11:59.003Z,4.10
2022-07-28T01:14:37.150Z,4.50
2022-07-28T01:17:17.468Z,4.00
2022-07-28T01:20:05.651Z,4.40
2022-07-28T01:22:39.928Z,4.73
2022-07-28T01:25:31.357Z,3.63
2022-07-28T01:28:01.280Z,3.77
2022-07-28T01:30:28.123Z,3.20
2022-07-28T01:33:18.516Z,3.90
2022-07-28T01:36:02.726Z,3.50
2022-07-28T01:38:33.064Z,3.60
2022-07-28T01:41:02.331Z,4.40
2022-07-28T01:43:33.440Z,4.47
2022-07-28T01:46:03.457Z,5.07
2022-07-28T01:48:33.802Z,5.00
2022-07-28T01:51:03.390Z,4.80
2022-07-28T01:53:37.536Z,4.80
2022-07-28T01:56:06.038Z,4.97
2022-07-28T01:58:34.535Z,5.97
2022-07-28T02:01:03.775Z,5.40
2022-07-28T02:03:32.594Z,5.90
2022-07-28T02:06:02.783Z,7.20
2022-07-28T02:08:32.495Z,6.97
2022-07-28T02:11:18.518Z,6.50
2022-07-28T02:13:48.325Z,7.03
2022-07-28T02:16:17.630Z,5.63
2022-07-28T02:18:46.182Z,6.03
2022-07-28T02:21:14.988Z,6.03
2022-07-28T02:23:45.247Z,5.83
2022-07-28T02:26:15.026Z,5.63
2022-07-28T02:28:47.211Z,5.17
2022-07-28T02:31:25.257Z,5.63
2022-07-28T02:34:02.299Z,4.80
2022-07-28T02:36:38.083Z,4.67
2022-07-28T02:39:21.987Z,4.80
2022-07-28T02:41:55.464Z,5.47
2022-07-28T02:44:27.285Z,4.53
2022-07-28T02:46:57.274Z,4.00
2022-07-28T02:49:29.858Z,5.23
2022-07-28T02:52:00.026Z,5.47
2022-07-28T02:54:28.915Z,5.30
2022-07-28T02:56:57.891Z,4.73
2022-07-28T02:59:26.093Z,4.97
2022-07-28T03:01:53.844Z,5.30
2022-07-28T03:04:41.312Z,5.20
2022-07-28T03:07:09.366Z,5.90
2022-07-28T03:09:48.246Z,5.20
2022-07-28T03:12:15.795Z,5.57
2022-07-28T03:14:43.000Z,5.90
2022-07-28T03:17:10.398Z,5.40
2022-07-28T03:19:38.274Z,4.10
2022-07-28T03:22:05.655Z,4.93
2022-07-28T03:24:42.191Z,4.50
2022-07-28T03:27:26.141Z,4.60
2022-07-28T03:30:13.525Z,4.20
2022-07-28T03:32:44.605Z,4.73
2022-07-28T03:35:13.155Z,4.27
2022-07-28T03:37:55.203Z,4.53
2022-07-28T03:40:26.815Z,4.70
2022-07-28T03:42:54.511Z,4.17
2022-07-28T03:45:22.185Z,4.50
2022-07-28T03:47:51.452Z,4.60
2022-07-28T03:50:21.405Z,4.03
2022-07-28T03:52:48.282Z,4.30
2022-07-28T03:55:15.775Z,4.53
2022-07-28T03:57:42.910Z,4.10
2022-07-28T04:00:10.806Z,4.17
2022-07-28T04:02:37.880Z,3.80
2022-07-28T04:05:05.150Z,4.40
2022-07-28T04:07:32.076Z,5.10
2022-07-28T04:09:59.000Z,4.53
2022-07-28T04:12:26.142Z,5.00
2022-07-28T04:14:52.975Z,4.40
2022-07-28T04:17:20.096Z,4.20
2022-07-28T04:19:46.951Z,4.40
2022-07-28T04:22:13.820Z,3.80
2022-07-28T04:24:40.751Z,4.17
2022-07-28T04:27:07.963Z,4.87
2022-07-28T04:29:34.838Z,4.27
2022-07-28T04:32:02.388Z,4.37
2022-07-28T04:34:29.240Z,4.37
2022-07-28T04:36:56.594Z,4.07
2022-07-28T04:39:24.956Z,4.07
2022-07-28T04:41:52.339Z,3.90
2022-07-28T04:44:20.103Z,4.90
2022-07-28T04:46:47.156Z,3.40
2022-07-28T04:49:14.136Z,4.13
2022-07-28T04:51:41.052Z,4.00
2022-07-28T04:54:07.898Z,3.60
2022-07-28T04:56:34.845Z,4.10
2022-07-28T04:59:01.801Z,3.93
2022-07-28T05:01:30.911Z,3.67
2022-07-28T05:03:57.887Z,3.70
2022-07-28T05:06:24.719Z,3.23
2022-07-28T05:08:51.616Z,3.87
2022-07-28T05:11:18.513Z,4.00
2022-07-28T05:13:45.399Z,3.87
2022-07-28T05:16:12.370Z,3.80
2022-07-28T05:18:39.232Z,3.90
2022-07-28T05:21:06.440Z,3.50
2022-07-28T05:23:33.360Z,3.87
2022-07-28T05:26:00.255Z,3.00
2022-07-28T05:28:27.188Z,3.30
2022-07-28T05:30:54.290Z,3.40
2022-07-28T05:33:21.195Z,3.80
2022-07-28T05:35:57.617Z,3.93
2022-07-28T05:38:24.578Z,3.53
2022-07-28T05:40:51.802Z,3.87
2022-07-28T05:43:20.094Z,3.83
2022-07-28T05:45:47.744Z,3.57
2022-07-28T05:48:18.877Z,3.47
2022-07-28T05:50:46.166Z,3.30
2022-07-28T05:53:13.029Z,3.30
2022-07-28T05:55:59.690Z,3.40
2022-07-28T05:58:27.008Z,4.10
2022-07-28T06:00:53.923Z,3.80
2022-07-28T06:03:20.872Z,3.00
2022-07-28T06:06:00.748Z,3.53
2022-07-28T06:08:34.722Z,3.43
2022-07-28T06:11:09.080Z,3.50
2022-07-28T06:13:37.255Z,4.00
2022-07-28T06:16:09.649Z,3.47
2022-07-28T06:18:40.100Z,4.03
2022-07-28T06:21:06.986Z,3.20
2022-07-28T06:23:34.222Z,3.53
2022-07-28T06:26:01.265Z,3.07
2022-07-28T06:28:28.188Z,3.50
2022-07-28T06:30:55.054Z,3.17
2022-07-28T06:33:21.892Z,3.47
2022-07-28T06:35:51.256Z,3.00
2022-07-28T06:38:20.538Z,3.30
2022-07-28T06:40:48.164Z,3.27
2022-07-28T06:43:15.095Z,3.60
2022-07-28T06:45:42.147Z,3.73
2022-07-28T06:48:09.296Z,4.00
2022-07-28T06:50:39.353Z,3.80
2022-07-28T06:53:06.459Z,4.30
2022-07-28T06:55:35.120Z,4.17
2022-07-28T06:58:06.163Z,4.03
2022-07-28T07:00:33.402Z,4.20
2022-07-28T07:03:01.033Z,3.93
2022-07-28T07:05:32.087Z,4.17
2022-07-28T07:07:59.412Z,4.47
2022-07-28T07:10:26.637Z,3.63
2022-07-28T07:12:53.576Z,3.93
2022-07-28T07:15:20.514Z,3.10
2022-07-28T07:17:47.391Z,3.23
2022-07-28T07:20:16.547Z,3.40
2022-07-28T07:22:46.832Z,3.70
2022-07-28T07:25:19.792Z,3.50
2022-07-28T07:27:47.553Z,4.80
2022-07-28T07:30:15.547Z,3.30
2022-07-28T07:32:42.878Z,4.13
2022-07-28T07:35:10.220Z,3.77
2022-07-28T07:37:37.118Z,3.57
2022-07-28T07:40:05.956Z,3.50
2022-07-28T07:42:32.988Z,4.60
2022-07-28T07:44:59.840Z,5.03
2022-07-28T07:47:26.959Z,4.70
2022-07-28T07:49:54.060Z,4.43
2022-07-28T07:52:20.988Z,5.70
2022-07-28T07:54:47.907Z,6.30
2022-07-28T07:57:14.952Z,4.80
2022-07-28T07:59:41.867Z,5.73
2022-07-28T08:02:09.213Z,5.03
2022-07-28T08:04:37.159Z,5.07
2022-07-28T08:07:05.012Z,6.13
2022-07-28T08:09:32.907Z,5.70
2022-07-28T08:11:59.993Z,8.20
2022-07-28T08:14:26.923Z,11.23
2022-07-28T08:16:56.528Z,13.30
2022-07-28T08:19:23.548Z,8.30
2022-07-28T08:21:50.977Z,8.70
2022-07-28T08:24:33.791Z,7.13
2022-07-28T08:27:02.288Z,7.37
2022-07-28T08:29:29.287Z,7.67
2022-07-28T08:31:56.719Z,8.07
2022-07-28T08:34:31.860Z,7.03
2022-07-28T08:37:02.661Z,5.63
2022-07-28T08:39:30.499Z,4.80
2022-07-28T08:42:10.424Z,5.17
2022-07-28T08:44:42.713Z,4.70
2022-07-28T08:47:13.280Z,4.40
2022-07-28T08:49:42.703Z,4.73
2022-07-28T08:52:14.288Z,4.80
2022-07-28T08:54:43.791Z,5.37
2022-07-28T08:57:17.998Z,4.97
2022-07-28T08:59:46.629Z,4.30
2022-07-28T09:02:14.946Z,4.33
2022-07-28T09:04:42.533Z,4.20
2022-07-28T09:07:11.460Z,4.30
2022-07-28T09:09:39.394Z,4.10
2022-07-28T09:12:06.720Z,3.47
2022-07-28T09:14:34.505Z,3.03
2022-07-28T09:17:02.463Z,2.90
2022-07-28T09:19:34.275Z,2.70
2022-07-28T09:22:03.815Z,3.10
2022-07-28T09:24:37.917Z,3.20
2022-07-28T09:27:07.699Z,3.23
2022-07-28T09:29:39.934Z,2.57
2022-07-28T09:32:08.346Z,3.30
2022-07-28T09:34:43.526Z,3.07
2022-07-28T09:37:26.782Z,2.93
2022-07-28T09:39:59.251Z,2.50
2022-07-28T09:42:26.881Z,2.73
2022-07-28T09:45:25.016Z,3.37
2022-07-28T09:48:13.111Z,3.47
2022-07-28T09:50:42.318Z,3.27
2022-07-28T09:53:28.133Z,2.50
2022-07-28T09:56:02.553Z,3.20
2022-07-28T09:58:30.533Z,3.20
2022-07-28T10:01:08.065Z,3.27
2022-07-28T10:03:37.140Z,3.03
2022-07-28T10:06:08.341Z,3.53
2022-07-28T10:08:49.871Z,3.50
2022-07-28T10:11:19.988Z,3.27
2022-07-28T10:13:53.433Z,3.50
2022-07-28T10:16:21.571Z,3.33
2022-07-28T10:18:49.346Z,4.57
2022-07-28T10:21:18.508Z,5.37
2022-07-28T10:23:53.714Z,3.20
2022-07-28T10:26:25.040Z,3.20
2022-07-28T10:28:54.041Z,3.17
2022-07-28T10:31:43.583Z,2.90
2022-07-28T10:34:20.363Z,2.70
2022-07-28T10:36:56.418Z,3.00
2022-07-28T10:39:28.845Z,3.00
2022-07-28T10:41:57.240Z,2.83
2022-07-28T10:44:25.409Z,3.10
2022-07-28T10:46:52.779Z,2.93
2022-07-28T10:49:20.976Z,3.60
2022-07-28T10:52:06.507Z,3.07
2022-07-28T10:55:32.046Z,3.10
2022-07-28T10:58:53.456Z,3.23
2022-07-28T11:01:49.103Z,2.77
2022-07-28T11:04:46.934Z,3.53
2022-07-28T11:07:18.076Z,3.00
2022-07-28T11:09:47.519Z,3.20
2022-07-28T11:12:17.804Z,3.37
2022-07-28T11:14:44.969Z,2.80
2022-07-28T11:17:16.789Z,3.37
2022-07-28T11:20:25.025Z,3.20
2022-07-28T11:22:42.483Z,3.00
2022-07-28T11:25:18.057Z,2.80
2022-07-28T11:27:50.715Z,2.43
2022-07-28T11:30:32.691Z,3.03
2022-07-28T11:33:04.196Z,2.93
2022-07-28T11:35:52.143Z,3.23
2022-07-28T11:38:19.814Z,3.10
2022-07-28T11:40:47.749Z,2.83
2022-07-28T11:43:37.755Z,3.27
2022-07-28T11:46:11.151Z,3.10
2022-07-28T11:48:41.542Z,3.03
2022-07-28T11:51:09.292Z,3.10
2022-07-28T11:53:50.385Z,3.00
2022-07-28T11:56:37.722Z,2.50
2022-07-28T11:59:06.653Z,2.93
2022-07-28T12:01:38.414Z,2.60
2022-07-28T12:04:14.585Z,2.60
2022-07-28T12:06:43.197Z,3.40
2022-07-28T12:09:11.437Z,2.50
2022-07-28T12:11:42.556Z,3.07
2022-07-28T12:14:17.761Z,3.40
2022-07-28T12:16:49.860Z,2.80
2022-07-28T12:19:19.106Z,2.90
2022-07-28T12:21:51.859Z,2.90
2022-07-28T12:24:45.986Z,3.43
2022-07-28T12:27:14.825Z,2.40
2022-07-28T12:29:42.487Z,2.23
2022-07-28T12:32:10.171Z,2.70
2022-07-28T12:34:39.891Z,2.60
2022-07-28T12:37:12.418Z,2.80
2022-07-28T12:39:42.531Z,2.57
2022-07-28T12:42:12.060Z,2.40
2022-07-28T12:44:44.173Z,3.00
2022-07-28T12:47:13.133Z,2.80
2022-07-28T12:49:42.544Z,2.87
2022-07-28T12:52:17.114Z,2.10
2022-07-28T12:54:54.768Z,2.70
2022-07-28T12:57:51.020Z,2.80
2022-07-28T13:00:27.421Z,2.50
2022-07-28T13:02:56.720Z,2.50
2022-07-28T13:06:00.196Z,2.80
2022-07-28T13:08:29.348Z,3.33
2022-07-28T13:10:58.886Z,2.67
2022-07-28T13:13:26.849Z,2.53
2022-07-28T13:16:15.991Z,2.40
2022-07-28T13:18:48.734Z,2.67
2022-07-28T13:21:16.749Z,2.70
2022-07-28T13:23:44.331Z,2.60
2022-07-28T13:26:11.280Z,3.07
2022-07-28T13:28:39.660Z,2.40
2022-07-28T13:31:06.703Z,2.50
2022-07-28T13:33:33.643Z,2.60
2022-07-28T13:36:01.381Z,2.53
2022-07-28T13:38:28.286Z,2.80
2022-07-28T13:40:56.842Z,3.20
2022-07-28T13:43:24.780Z,2.90
2022-07-28T13:46:03.781Z,2.97
2022-07-28T13:48:32.932Z,3.00
2022-07-28T13:51:00.592Z,2.93
2022-07-28T13:53:27.542Z,2.63
2022-07-28T13:55:54.392Z,2.70
2022-07-28T13:58:21.342Z,2.50
2022-07-28T14:00:49.953Z,3.20
2022-07-28T14:03:17.025Z,2.70
2022-07-28T14:05:44.098Z,2.73
2022-07-28T14:08:12.381Z,2.27
2022-07-28T14:10:39.301Z,3.03
2022-07-28T14:13:06.143Z,2.50
2022-07-28T14:15:33.734Z,3.10
2022-07-28T14:18:00.770Z,3.00
2022-07-28T14:20:28.178Z,3.03
2022-07-28T14:22:55.094Z,2.77
2022-07-28T14:25:22.118Z,3.00
2022-07-28T14:27:50.164Z,2.80
2022-07-28T14:30:18.200Z,2.87
2022-07-28T14:32:45.046Z,3.03
2022-07-28T14:35:11.929Z,3.20
2022-07-28T14:38:15.851Z,3.00
2022-07-28T14:40:27.107Z,3.20
2022-07-28T14:42:53.967Z,3.30
2022-07-28T14:45:20.912Z,2.60
2022-07-28T14:47:48.068Z,3.10
2022-07-28T14:50:14.964Z,2.80
2022-07-28T14:52:44.787Z,3.27
2022-07-28T14:55:13.023Z,3.27
2022-07-28T14:57:48.724Z,2.93
2022-07-28T15:00:22.010Z,2.60
2022-07-28T15:02:51.364Z,2.83
2022-07-28T15:05:18.698Z,2.63
2022-07-28T15:07:49.104Z,3.20
2022-07-28T15:10:16.204Z,3.83
2022-07-28T15:12:43.089Z,3.00
2022-07-28T15:15:10.734Z,3.13
2022-07-28T15:17:37.759Z,3.40
2022-07-28T15:20:07.339Z,2.97
2022-07-28T15:22:34.548Z,3.10
2022-07-28T15:25:01.570Z,2.43
2022-07-28T15:27:33.311Z,2.80
2022-07-28T15:30:02.658Z,2.90
2022-07-28T15:32:30.641Z,3.30
2022-07-28T15:34:57.534Z,2.70
2022-07-28T15:37:24.446Z,2.87
2022-07-28T15:39:51.407Z,3.00
2022-07-28T15:42:18.382Z,2.63
2022-07-28T15:44:45.247Z,2.87
2022-07-28T15:47:12.203Z,3.20
2022-07-28T15:49:39.064Z,3.13
2022-07-28T15:52:06.143Z,3.30
2022-07-28T15:54:33.060Z,3.00
2022-07-28T15:56:59.890Z,3.10
2022-07-28T15:59:50.136Z,3.43
2022-07-28T16:02:17.784Z,3.30
2022-07-28T16:04:48.946Z,2.73
2022-07-28T16:07:24.404Z,3.20
2022-07-28T16:09:53.945Z,3.13
2022-07-28T16:12:22.976Z,3.43
2022-07-28T16:14:49.934Z,3.37
2022-07-28T16:17:18.346Z,2.87
2022-07-28T16:19:50.251Z,3.27
2022-07-28T16:22:19.261Z,2.83
2022-07-28T16:24:46.872Z,3.40
2022-07-28T16:27:14.726Z,3.20
2022-07-28T16:29:41.802Z,3.10
2022-07-28T16:32:08.823Z,2.80
2022-07-28T16:34:36.045Z,3.23
2022-07-28T16:37:05.755Z,2.80
2022-07-28T16:39:33.835Z,2.90
2022-07-28T16:42:01.520Z,3.17
2022-07-28T16:44:28.898Z,2.53
2022-07-28T16:46:56.519Z,2.87
2022-07-28T16:49:24.039Z,2.40
2022-07-28T16:51:51.042Z,3.20
2022-07-28T16:54:18.416Z,2.70
2022-07-28T16:56:45.946Z,2.30
2022-07-28T16:59:13.037Z,2.43
2022-07-28T17:01:45.561Z,2.70
2022-07-28T17:04:13.636Z,2.67
2022-07-28T17:06:40.995Z,3.20
2022-07-28T17:09:07.876Z,2.87
2022-07-28T17:11:34.803Z,2.70
2022-07-28T17:14:01.664Z,2.77
2022-07-28T17:16:28.709Z,2.60
2022-07-28T17:18:55.672Z,2.57
2022-07-28T17:21:22.539Z,2.57
2022-07-28T17:23:49.424Z,2.30
2022-07-28T17:27:30.713Z,2.77
2022-07-28T17:29:03.171Z,3.33
2022-07-28T17:31:33.642Z,2.30
2022-07-28T17:34:01.258Z,2.93
2022-07-28T17:36:29.302Z,2.80
2022-07-28T17:38:56.204Z,3.10
2022-07-28T17:41:23.089Z,2.87
2022-07-28T17:43:50.008Z,3.20
2022-07-28T17:46:18.253Z,4.33
2022-07-28T17:48:48.641Z,4.00
2022-07-28T17:51:18.105Z,3.50
2022-07-28T17:53:45.591Z,3.67
2022-07-28T17:56:13.155Z,3.43
2022-07-28T17:58:41.042Z,3.80
2022-07-28T18:01:12.709Z,4.27
2022-07-28T18:03:59.562Z,3.83
2022-07-28T18:06:34.460Z,3.77
2022-07-28T18:09:06.307Z,3.27
2022-07-28T18:11:56.547Z,3.60
2022-07-28T18:14:27.258Z,3.60
2022-07-28T18:16:54.420Z,3.40
2022-07-28T18:19:21.317Z,4.03
2022-07-28T18:21:48.679Z,4.13
2022-07-28T18:24:15.907Z,4.30
2022-07-28T18:26:43.044Z,3.80
2022-07-28T18:29:09.895Z,4.30
2022-07-28T18:31:43.811Z,3.73
2022-07-28T18:34:14.274Z,3.60
2022-07-28T18:36:41.377Z,4.30
2022-07-28T18:39:08.700Z,3.90
2022-07-28T18:41:46.475Z,4.27
2022-07-28T18:44:16.314Z,3.80
2022-07-28T18:46:43.690Z,4.00
2022-07-28T18:49:10.714Z,3.73
2022-07-28T18:51:37.642Z,4.60
2022-07-28T18:54:04.875Z,4.03
2022-07-28T18:56:31.836Z,4.10
2022-07-28T18:58:58.769Z,4.40
2022-07-28T19:01:25.643Z,3.90
2022-07-28T19:03:52.643Z,3.97
2022-07-28T19:06:20.662Z,4.97
2022-07-28T19:08:48.302Z,4.33
2022-07-28T19:11:19.637Z,4.37
2022-07-28T19:13:47.804Z,4.33
2022-07-28T19:16:14.969Z,4.50
2022-07-28T19:18:41.934Z,4.70
2022-07-28T19:21:09.180Z,4.20
2022-07-28T19:23:36.065Z,3.63
2022-07-28T19:26:04.629Z,4.40
2022-07-28T19:28:35.881Z,4.03
2022-07-28T19:31:10.605Z,4.40
2022-07-28T19:33:43.744Z,4.60
2022-07-28T19:36:15.450Z,4.33
2022-07-28T19:38:44.271Z,4.13
2022-07-28T19:41:17.656Z,4.20
2022-07-28T19:43:45.689Z,4.87
2022-07-28T19:46:12.892Z,4.93
2022-07-28T19:48:41.735Z,4.40
2022-07-28T19:51:09.583Z,4.50
2022-07-28T19:53:37.819Z,4.10
2022-07-28T19:56:09.369Z,5.03
2022-07-28T19:58:40.532Z,4.70
2022-07-28T20:01:07.659Z,4.40
2022-07-28T20:04:03.994Z,4.73
2022-07-28T20:06:24.736Z,4.67
2022-07-28T20:08:53.130Z,4.77
2022-07-28T20:11:21.159Z,4.90
2022-07-28T20:13:49.433Z,4.77
2022-07-28T20:16:17.946Z,4.13
2022-07-28T20:18:44.949Z,4.33
2022-07-28T20:21:11.991Z,4.37
2022-07-28T20:23:40.945Z,4.83
2022-07-28T20:26:09.408Z,4.37
2022-07-28T20:28:36.425Z,5.53
2022-07-28T20:31:03.530Z,4.80
2022-07-28T20:33:31.124Z,4.70
2022-07-28T20:35:58.069Z,4.70
2022-07-28T20:38:24.899Z,4.60
2022-07-28T20:40:51.941Z,4.27
2022-07-28T20:43:18.821Z,4.70
2022-07-28T20:45:46.322Z,4.97
2022-07-28T20:48:14.509Z,4.70
2022-07-28T20:50:42.395Z,5.57
2022-07-28T20:53:10.555Z,4.70
2022-07-28T20:55:37.574Z,4.27
2022-07-28T20:58:05.880Z,4.53
2022-07-28T21:00:33.043Z,4.67
2022-07-28T21:02:59.953Z,4.90
2022-07-28T21:05:34.958Z,4.47
2022-07-28T21:08:05.881Z,4.73
2022-07-28T21:10:33.767Z,4.60
2022-07-28T21:13:00.750Z,5.10
2022-07-28T21:15:27.679Z,5.00
2022-07-28T21:17:56.964Z,4.13
2022-07-28T21:20:24.753Z,5.30
2022-07-28T21:22:51.646Z,5.00
2022-07-28T21:25:19.260Z,5.10
2022-07-28T21:28:04.510Z,5.10
2022-07-28T21:30:31.470Z,4.50
2022-07-28T21:32:58.386Z,4.57
2022-07-28T21:35:25.787Z,4.80
2022-07-28T21:37:52.786Z,4.70
2022-07-28T21:40:19.739Z,4.63
2022-07-28T21:42:47.480Z,4.33
2022-07-28T21:45:14.417Z,4.97
2022-07-28T21:47:41.730Z,4.67
2022-07-28T21:50:09.015Z,4.60
2022-07-28T21:52:37.000Z,4.93
2022-07-28T21:55:05.856Z,5.40
2022-07-28T21:57:32.896Z,4.63
2022-07-28T21:59:59.742Z,5.03
2022-07-28T22:02:26.919Z,5.53
2022-07-28T22:04:53.855Z,4.50
2022-07-28T22:07:20.859Z,4.30
2022-07-28T22:09:47.702Z,4.27
2022-07-28T22:12:14.649Z,4.60
2022-07-28T22:14:41.518Z,4.57
2022-07-28T22:17:08.384Z,4.90
2022-07-28T22:19:36.308Z,4.60
2022-07-28T22:22:03.242Z,4.63
2022-07-28T22:24:30.103Z,4.93
2022-07-28T22:26:56.995Z,4.50
2022-07-28T22:29:23.936Z,5.17
2022-07-28T22:31:53.623Z,4.73
2022-07-28T22:34:23.361Z,4.57
2022-07-28T22:36:50.280Z,4.50
2022-07-28T22:39:17.113Z,4.13
2022-07-28T22:41:44.027Z,4.73
2022-07-28T22:44:14.215Z,5.13
2022-07-28T22:46:41.361Z,5.00
2022-07-28T22:49:08.284Z,4.97
2022-07-28T22:51:35.254Z,4.93
2022-07-28T22:54:02.424Z,4.83
2022-07-28T22:56:37.359Z,4.40
2022-07-28T22:59:04.936Z,4.40
2022-07-28T23:01:32.213Z,4.83
2022-07-28T23:04:00.647Z,4.40
2022-07-28T23:06:27.655Z,4.67
2022-07-28T23:08:54.681Z,5.17
2022-07-28T23:11:21.523Z,4.70
2022-07-28T23:13:48.486Z,4.33
2022-07-28T23:16:17.125Z,5.30
2022-07-28T23:18:44.902Z,4.50
2022-07-28T23:21:12.305Z,5.07
2022-07-28T23:23:39.465Z,4.60
2022-07-28T23:26:06.769Z,4.80
2022-07-28T23:28:36.133Z,4.67
2022-07-28T23:31:04.466Z,5.20
2022-07-28T23:33:55.468Z,4.70
2022-07-28T23:36:26.318Z,5.00
2022-07-28T23:38:55.656Z,4.80
2022-07-28T23:41:22.669Z,5.17
2022-07-28T23:43:49.525Z,4.50
2022-07-28T23:46:16.523Z,4.90
2022-07-28T23:48:43.853Z,4.87
2022-07-28T23:51:10.759Z,5.40
2022-07-28T23:53:38.498Z,4.37
2022-07-28T23:56:05.798Z,4.50
2022-07-28T23:58:32.692Z,4.43
